LEBZGEML

Guest
Details From LEBZ - Talavera La Real
To GEML - MELILLA
Flight Number -
Tags decoded
Created
Modified
Stats Distance 298 nm / 552 km
Max Altitude 0 ft / 0 m
Waypoints 7
Social Downloads 0
Likes 0
Share VATSIM

Download

Looking for another format? Having issues loading an existing format? Contact us
Advertisement - Login to hide

Notes

Requested: LEBZ SANTA A44 MGA A301 PEKOP GEML Unmatched points: A301

Route

LEBZ SANTA A44 MGA PEKOP GEML

ID Type Via Altitude Latitude Longitude Leg Dist Tot Dist Heading (true) Name
O LEBZ APT - 0 ft / 0 m 38.89127˚ -6.82126˚ - 0 nm - Talavera La Real
SANTA FIX - 0 ft / 0 m 37.66854˚ -6.29835˚ 77 nm 77 nm 161° / 162° -
SVL VOR A44 (AWY-LO) 0 ft / 0 m 37.42758˚ -5.76222˚ 29 nm 106 nm 119° / 120° SEVILLA VOR-DME
MAR VOR A44 (AWY-LO) 0 ft / 0 m 37.05532˚ -4.93989˚ 45 nm 152 nm 119° / 120° MARTIN VOR-DME
MGA VOR A44 (AWY-LO) 0 ft / 0 m 36.81431˚ -4.36952˚ 30 nm 183 nm 118° / 118° MALAGA VOR-DME
PEKOP FIX - 0 ft / 0 m 35.83333˚ -3.44083˚ 74 nm 257 nm 142° / 143° -
O GEML APT - 0 ft / 0 m 35.28037˚ -2.95671˚ 40 nm 297 nm 144° / 145° MELILLA

Altitude Profile

Advertisement - Login to hide

Weather


0- 5 10 15 20 25 30 35+ Temperature / ° C

Clouds and Precipitation
Forecast for 2017-12-18 06:00 UTC. Updated 14 minutes ago

Ground ~20,000 ft ~40,000 ft Winds

LEBZ

Details ICAO LEBZ (BJZ)
Name Talavera La Real
Region Spain
Timezone Europe/Madrid (UTC+1.0)
Stats Elevation 609 ft / 186 m (AMSL)
Location 38.891271° -6.821256°
Runways 1
Magnetic Variation 1.618° W

METAR

Not found

TAF

TAF LEBZ 172300Z 1800/1824 02003KT CAVOK TX12/1815Z TN01/1808Z

Decode

Departure Runways

ID Width Length Bearing (true) Bearing (mag) Surface Threshold Offset Overrun Length
13 197 ft / 60 m 9,350 ft / 2,850 m 125.72° 127.34° Asphalt 0 ft / 0 m 980 ft / 299 m
31 197 ft / 60 m 9,350 ft / 2,850 m 305.74° 307.36° Asphalt 0 ft / 0 m 980 ft / 299 m

GEML

Details ICAO GEML (MLN)
Name MELILLA
Region Ceuta and Melilla
Timezone Africa/Casablanca (UTC+0.0)
Stats Elevation 156 ft / 48 m (AMSL)
Location 35.280374° -2.956708°
Runways 1
Magnetic Variation 0.453° W

METAR

GEML 180330Z AUTO 00000KT 9999 NCD 11/06 Q1030

Decode

TAF

TAF GEML 180200Z 1803/1903 10008KT 9999 FEW030 TX16/1813Z TN08/1806Z

Decode

Destination Runways

ID Width Length Bearing (true) Bearing (mag) Surface Threshold Offset Overrun Length
15 148 ft / 45 m 4,811 ft / 1,466 m 146.39° 146.84° Asphalt 755 ft / 230 m 0 ft / 0 m
33 148 ft / 45 m 4,811 ft / 1,466 m 326.40° 326.85° Asphalt 0 ft / 0 m 0 ft / 0 m

Popular Alternatives